sensor_id;sensor_type;location;lat;lon;timestamp;P1;durP1;ratioP1;P2;durP2;ratioP2
48006;SDS011;33771;48.180;11.400;2022-10-13T00:00:26;27.03;;;13.33;;
48006;SDS011;33771;48.180;11.400;2022-10-13T00:02:52;22.67;;;14.00;;
48006;SDS011;33771;48.180;11.400;2022-10-13T00:05:18;16.47;;;12.13;;
48006;SDS011;33771;48.180;11.400;2022-10-13T00:07:44;25.83;;;12.60;;
48006;SDS011;33771;48.180;11.400;2022-10-13T00:10:10;23.70;;;12.33;;
48006;SDS011;33771;48.180;11.400;2022-10-13T00:12:36;21.37;;;12.30;;
48006;SDS011;33771;48.180;11.400;2022-10-13T00:15:03;25.83;;;13.10;;
48006;SDS011;33771;48.180;11.400;2022-10-13T00:17:30;23.60;;;11.73;;
48006;SDS011;33771;48.180;11.400;2022-10-13T00:19:56;23.47;;;11.67;;
48006;SDS011;33771;48.180;11.400;2022-10-13T00:22:22;21.90;;;12.50;;
48006;SDS011;33771;48.180;11.400;2022-10-13T00:24:51;21.67;;;12.30;;
48006;SDS011;33771;48.180;11.400;2022-10-13T00:27:17;19.30;;;11.97;;
48006;SDS011;33771;48.180;11.400;2022-10-13T00:29:43;20.83;;;13.43;;
48006;SDS011;33771;48.180;11.400;2022-10-13T00:32:09;18.40;;;12.00;;
48006;SDS011;33771;48.180;11.400;2022-10-13T00:34:37;22.77;;;12.70;;
48006;SDS011;33771;48.180;11.400;2022-10-13T00:37:03;22.23;;;13.20;;
48006;SDS011;33771;48.180;11.400;2022-10-13T00:39:29;18.80;;;12.80;;
48006;SDS011;33771;48.180;11.400;2022-10-13T00:41:56;17.87;;;12.60;;
48006;SDS011;33771;48.180;11.400;2022-10-13T00:47:18;16.17;;;10.53;;
48006;SDS011;33771;48.180;11.400;2022-10-13T00:49:44;16.97;;;10.17;;
48006;SDS011;33771;48.180;11.400;2022-10-13T00:52:10;15.97;;;10.60;;
48006;SDS011;33771;48.180;11.400;2022-10-13T00:54:38;19.70;;;10.67;;
48006;SDS011;33771;48.180;11.400;2022-10-13T00:57:03;15.17;;;8.93;;
48006;SDS011;33771;48.180;11.400;2022-10-13T00:59:31;14.30;;;9.63;;
48006;SDS011;33771;48.180;11.400;2022-10-13T01:01:58;15.60;;;9.43;;
48006;SDS011;33771;48.180;11.400;2022-10-13T01:04:26;12.83;;;9.50;;
48006;SDS011;33771;48.180;11.400;2022-10-13T01:06:55;18.00;;;10.97;;
48006;SDS011;33771;48.180;11.400;2022-10-13T01:09:22;15.10;;;10.17;;
48006;SDS011;33771;48.180;11.400;2022-10-13T01:22:26;17.70;;;12.63;;
48006;SDS011;33771;48.180;11.400;2022-10-13T01:30:23;18.17;;;12.90;;
48006;SDS011;33771;48.180;11.400;2022-10-13T01:38:28;19.90;;;13.10;;
48006;SDS011;33771;48.180;11.400;2022-10-13T01:41:21;17.27;;;12.47;;
48006;SDS011;33771;48.180;11.400;2022-10-13T01:43:54;18.57;;;12.63;;
48006;SDS011;33771;48.180;11.400;2022-10-13T01:46:30;16.47;;;12.40;;
48006;SDS011;33771;48.180;11.400;2022-10-13T01:48:59;18.83;;;12.73;;
48006;SDS011;33771;48.180;11.400;2022-10-13T01:51:28;19.53;;;12.73;;
48006;SDS011;33771;48.180;11.400;2022-10-13T01:53:56;22.57;;;12.80;;
48006;SDS011;33771;48.180;11.400;2022-10-13T01:56:22;22.80;;;13.97;;
48006;SDS011;33771;48.180;11.400;2022-10-13T01:58:48;20.23;;;13.70;;
48006;SDS011;33771;48.180;11.400;2022-10-13T02:01:30;36.10;;;15.37;;
48006;SDS011;33771;48.180;11.400;2022-10-13T02:15:15;144.80;;;16.23;;
48006;SDS011;33771;48.180;11.400;2022-10-13T02:17:43;20.07;;;14.07;;
48006;SDS011;33771;48.180;11.400;2022-10-13T02:20:09;51.33;;;16.73;;
48006;SDS011;33771;48.180;11.400;2022-10-13T02:22:36;35.33;;;15.07;;
48006;SDS011;33771;48.180;11.400;2022-10-13T02:25:05;22.87;;;13.87;;
48006;SDS011;33771;48.180;11.400;2022-10-13T02:27:32;19.47;;;14.77;;
48006;SDS011;33771;48.180;11.400;2022-10-13T02:29:58;37.20;;;15.63;;
48006;SDS011;33771;48.180;11.400;2022-10-13T02:32:23;20.10;;;14.33;;
48006;SDS011;33771;48.180;11.400;2022-10-13T02:34:49;22.80;;;14.40;;
48006;SDS011;33771;48.180;11.400;2022-10-13T02:37:15;23.57;;;14.00;;
48006;SDS011;33771;48.180;11.400;2022-10-13T02:39:41;25.27;;;14.03;;
48006;SDS011;33771;48.180;11.400;2022-10-13T02:42:07;20.57;;;13.17;;
48006;SDS011;33771;48.180;11.400;2022-10-13T02:44:32;16.83;;;13.40;;
48006;SDS011;33771;48.180;11.400;2022-10-13T02:46:58;15.97;;;13.47;;
48006;SDS011;33771;48.180;11.400;2022-10-13T02:49:24;29.00;;;14.17;;
48006;SDS011;33771;48.180;11.400;2022-10-13T02:51:49;17.10;;;13.13;;
48006;SDS011;33771;48.180;11.400;2022-10-13T02:54:15;26.20;;;13.77;;
48006;SDS011;33771;48.180;11.400;2022-10-13T02:56:41;21.40;;;13.10;;
48006;SDS011;33771;48.180;11.400;2022-10-13T02:59:06;27.83;;;12.93;;
48006;SDS011;33771;48.180;11.400;2022-10-13T03:01:32;16.83;;;12.63;;
48006;SDS011;33771;48.180;11.400;2022-10-13T03:03:57;17.30;;;12.57;;
48006;SDS011;33771;48.180;11.400;2022-10-13T03:06:23;20.67;;;12.77;;
48006;SDS011;33771;48.180;11.400;2022-10-13T03:08:49;18.73;;;13.40;;
48006;SDS011;33771;48.180;11.400;2022-10-13T03:11:15;27.67;;;12.63;;
48006;SDS011;33771;48.180;11.400;2022-10-13T03:13:40;31.60;;;14.43;;
48006;SDS011;33771;48.180;11.400;2022-10-13T03:16:06;16.97;;;12.97;;
48006;SDS011;33771;48.180;11.400;2022-10-13T03:18:32;16.47;;;12.70;;
48006;SDS011;33771;48.180;11.400;2022-10-13T03:20:59;18.03;;;13.40;;
48006;SDS011;33771;48.180;11.400;2022-10-13T03:23:27;21.63;;;12.60;;
48006;SDS011;33771;48.180;11.400;2022-10-13T03:25:53;20.93;;;13.23;;
48006;SDS011;33771;48.180;11.400;2022-10-13T03:28:20;15.50;;;13.00;;
48006;SDS011;33771;48.180;11.400;2022-10-13T03:30:46;21.27;;;12.83;;
48006;SDS011;33771;48.180;11.400;2022-10-13T03:33:12;19.67;;;13.33;;
48006;SDS011;33771;48.180;11.400;2022-10-13T03:35:37;17.93;;;13.43;;
48006;SDS011;33771;48.180;11.400;2022-10-13T03:38:03;21.63;;;13.40;;
48006;SDS011;33771;48.180;11.400;2022-10-13T03:40:28;20.87;;;14.60;;
48006;SDS011;33771;48.180;11.400;2022-10-13T03:42:54;17.47;;;13.27;;
48006;SDS011;33771;48.180;11.400;2022-10-13T03:45:19;17.83;;;14.43;;
48006;SDS011;33771;48.180;11.400;2022-10-13T03:47:45;20.17;;;14.30;;
48006;SDS011;33771;48.180;11.400;2022-10-13T03:50:11;31.07;;;14.17;;
48006;SDS011;33771;48.180;11.400;2022-10-13T03:52:36;18.57;;;14.40;;
48006;SDS011;33771;48.180;11.400;2022-10-13T03:55:02;31.30;;;16.83;;
48006;SDS011;33771;48.180;11.400;2022-10-13T03:57:28;24.00;;;15.67;;
48006;SDS011;33771;48.180;11.400;2022-10-13T03:59:54;31.20;;;15.53;;
48006;SDS011;33771;48.180;11.400;2022-10-13T04:02:21;33.57;;;16.03;;
48006;SDS011;33771;48.180;11.400;2022-10-13T04:04:47;24.80;;;16.47;;
48006;SDS011;33771;48.180;11.400;2022-10-13T04:07:13;24.43;;;16.50;;
48006;SDS011;33771;48.180;11.400;2022-10-13T04:09:38;23.10;;;14.73;;
48006;SDS011;33771;48.180;11.400;2022-10-13T04:12:04;21.20;;;14.37;;
48006;SDS011;33771;48.180;11.400;2022-10-13T04:14:29;19.83;;;14.93;;
48006;SDS011;33771;48.180;11.400;2022-10-13T04:16:55;21.67;;;14.33;;
48006;SDS011;33771;48.180;11.400;2022-10-13T04:19:21;20.87;;;14.10;;
48006;SDS011;33771;48.180;11.400;2022-10-13T04:21:46;21.97;;;14.37;;
48006;SDS011;33771;48.180;11.400;2022-10-13T04:24:12;19.80;;;14.73;;
48006;SDS011;33771;48.180;11.400;2022-10-13T04:26:38;19.40;;;14.30;;
48006;SDS011;33771;48.180;11.400;2022-10-13T04:29:05;21.07;;;15.17;;
48006;SDS011;33771;48.180;11.400;2022-10-13T04:31:32;23.67;;;15.10;;
48006;SDS011;33771;48.180;11.400;2022-10-13T04:33:58;20.93;;;14.87;;
48006;SDS011;33771;48.180;11.400;2022-10-13T04:36:24;29.83;;;16.60;;
48006;SDS011;33771;48.180;11.400;2022-10-13T04:38:51;28.67;;;16.97;;
48006;SDS011;33771;48.180;11.400;2022-10-13T04:41:17;26.47;;;16.43;;
48006;SDS011;33771;48.180;11.400;2022-10-13T04:43:45;23.53;;;16.80;;
48006;SDS011;33771;48.180;11.400;2022-10-13T04:46:15;23.17;;;16.13;;
48006;SDS011;33771;48.180;11.400;2022-10-13T04:48:45;25.30;;;16.87;;
48006;SDS011;33771;48.180;11.400;2022-10-13T04:51:21;25.10;;;16.77;;
48006;SDS011;33771;48.180;11.400;2022-10-13T04:53:53;29.90;;;17.53;;
48006;SDS011;33771;48.180;11.400;2022-10-13T04:56:19;26.63;;;17.07;;
48006;SDS011;33771;48.180;11.400;2022-10-13T04:58:45;25.90;;;17.57;;
48006;SDS011;33771;48.180;11.400;2022-10-13T05:01:12;29.10;;;17.93;;
48006;SDS011;33771;48.180;11.400;2022-10-13T05:03:40;29.97;;;19.03;;
48006;SDS011;33771;48.180;11.400;2022-10-13T05:06:11;27.40;;;18.77;;
48006;SDS011;33771;48.180;11.400;2022-10-13T05:08:41;27.63;;;19.27;;
48006;SDS011;33771;48.180;11.400;2022-10-13T05:11:07;25.60;;;17.30;;
48006;SDS011;33771;48.180;11.400;2022-10-13T05:13:34;28.07;;;18.57;;
48006;SDS011;33771;48.180;11.400;2022-10-13T05:16:04;30.63;;;18.33;;
48006;SDS011;33771;48.180;11.400;2022-10-13T05:18:35;28.65;;;19.83;;
48006;SDS011;33771;48.180;11.400;2022-10-13T05:21:09;32.80;;;19.87;;
48006;SDS011;33771;48.180;11.400;2022-10-13T05:23:35;31.50;;;20.53;;
48006;SDS011;33771;48.180;11.400;2022-10-13T05:26:04;28.93;;;20.07;;
48006;SDS011;33771;48.180;11.400;2022-10-13T05:28:32;30.80;;;18.93;;
48006;SDS011;33771;48.180;11.400;2022-10-13T05:31:06;30.70;;;19.10;;
48006;SDS011;33771;48.180;11.400;2022-10-13T05:33:36;29.40;;;20.03;;
48006;SDS011;33771;48.180;11.400;2022-10-13T05:36:03;32.83;;;20.07;;
48006;SDS011;33771;48.180;11.400;2022-10-13T05:38:30;31.67;;;19.17;;
48006;SDS011;33771;48.180;11.400;2022-10-13T05:41:00;29.07;;;19.40;;
48006;SDS011;33771;48.180;11.400;2022-10-13T05:43:26;32.20;;;18.97;;
48006;SDS011;33771;48.180;11.400;2022-10-13T05:45:52;34.60;;;19.40;;
48006;SDS011;33771;48.180;11.400;2022-10-13T05:48:17;32.20;;;19.10;;
48006;SDS011;33771;48.180;11.400;2022-10-13T05:50:43;28.00;;;19.03;;
48006;SDS011;33771;48.180;11.400;2022-10-13T05:53:08;29.67;;;18.60;;
48006;SDS011;33771;48.180;11.400;2022-10-13T05:55:34;29.30;;;18.53;;
48006;SDS011;33771;48.180;11.400;2022-10-13T05:57:59;30.90;;;18.37;;
48006;SDS011;33771;48.180;11.400;2022-10-13T06:00:26;28.63;;;17.97;;
48006;SDS011;33771;48.180;11.400;2022-10-13T06:03:03;28.83;;;18.27;;
48006;SDS011;33771;48.180;11.400;2022-10-13T06:05:56;29.33;;;19.87;;
48006;SDS011;33771;48.180;11.400;2022-10-13T06:08:22;30.10;;;20.33;;
48006;SDS011;33771;48.180;11.400;2022-10-13T06:10:47;33.70;;;21.83;;
48006;SDS011;33771;48.180;11.400;2022-10-13T06:13:13;32.33;;;20.83;;
48006;SDS011;33771;48.180;11.400;2022-10-13T06:15:38;30.83;;;21.30;;
48006;SDS011;33771;48.180;11.400;2022-10-13T06:18:07;32.27;;;21.47;;
48006;SDS011;33771;48.180;11.400;2022-10-13T06:20:33;30.67;;;21.10;;
48006;SDS011;33771;48.180;11.400;2022-10-13T06:22:59;31.00;;;21.40;;
48006;SDS011;33771;48.180;11.400;2022-10-13T06:25:25;32.93;;;21.63;;
48006;SDS011;33771;48.180;11.400;2022-10-13T06:27:51;39.23;;;22.33;;
48006;SDS011;33771;48.180;11.400;2022-10-13T06:30:17;33.90;;;22.47;;
48006;SDS011;33771;48.180;11.400;2022-10-13T06:32:43;36.03;;;23.40;;
48006;SDS011;33771;48.180;11.400;2022-10-13T06:35:08;33.07;;;22.27;;
48006;SDS011;33771;48.180;11.400;2022-10-13T06:37:34;39.37;;;23.83;;
48006;SDS011;33771;48.180;11.400;2022-10-13T06:39:59;38.00;;;23.42;;
48006;SDS011;33771;48.180;11.400;2022-10-13T06:42:25;38.90;;;24.60;;
48006;SDS011;33771;48.180;11.400;2022-10-13T06:44:50;39.20;;;23.87;;
48006;SDS011;33771;48.180;11.400;2022-10-13T06:47:16;40.30;;;24.17;;
48006;SDS011;33771;48.180;11.400;2022-10-13T06:49:42;38.50;;;25.33;;
48006;SDS011;33771;48.180;11.400;2022-10-13T06:52:07;45.78;;;26.58;;
48006;SDS011;33771;48.180;11.400;2022-10-13T06:54:33;40.55;;;26.10;;
48006;SDS011;33771;48.180;11.400;2022-10-13T06:56:59;40.60;;;26.42;;
48006;SDS011;33771;48.180;11.400;2022-10-13T06:59:24;44.53;;;27.20;;
48006;SDS011;33771;48.180;11.400;2022-10-13T07:01:51;44.75;;;26.20;;
48006;SDS011;33771;48.180;11.400;2022-10-13T07:04:17;45.28;;;27.15;;
48006;SDS011;33771;48.180;11.400;2022-10-13T07:06:43;45.17;;;28.05;;
48006;SDS011;33771;48.180;11.400;2022-10-13T07:09:09;54.00;;;27.80;;
48006;SDS011;33771;48.180;11.400;2022-10-13T07:11:34;48.63;;;28.52;;
48006;SDS011;33771;48.180;11.400;2022-10-13T07:14:00;49.05;;;28.45;;
48006;SDS011;33771;48.180;11.400;2022-10-13T07:16:26;46.03;;;27.27;;
48006;SDS011;33771;48.180;11.400;2022-10-13T07:18:52;49.60;;;28.67;;
48006;SDS011;33771;48.180;11.400;2022-10-13T07:21:17;47.30;;;27.10;;
48006;SDS011;33771;48.180;11.400;2022-10-13T07:23:43;48.40;;;27.08;;
48006;SDS011;33771;48.180;11.400;2022-10-13T07:26:09;41.50;;;26.40;;
48006;SDS011;33771;48.180;11.400;2022-10-13T07:28:37;38.33;;;25.30;;
48006;SDS011;33771;48.180;11.400;2022-10-13T07:31:08;41.65;;;25.35;;
48006;SDS011;33771;48.180;11.400;2022-10-13T07:33:39;42.60;;;25.25;;
48006;SDS011;33771;48.180;11.400;2022-10-13T07:36:07;41.05;;;26.50;;
48006;SDS011;33771;48.180;11.400;2022-10-13T07:38:33;43.28;;;27.42;;
48006;SDS011;33771;48.180;11.400;2022-10-13T07:40:59;38.08;;;25.73;;
48006;SDS011;33771;48.180;11.400;2022-10-13T07:43:26;38.03;;;22.98;;
48006;SDS011;33771;48.180;11.400;2022-10-13T07:45:52;41.58;;;24.63;;
48006;SDS011;33771;48.180;11.400;2022-10-13T07:48:18;33.35;;;21.40;;
48006;SDS011;33771;48.180;11.400;2022-10-13T07:50:46;33.55;;;22.48;;
48006;SDS011;33771;48.180;11.400;2022-10-13T07:53:12;37.40;;;23.08;;
48006;SDS011;33771;48.180;11.400;2022-10-13T07:55:37;39.45;;;23.30;;
48006;SDS011;33771;48.180;11.400;2022-10-13T07:58:05;36.28;;;23.40;;
48006;SDS011;33771;48.180;11.400;2022-10-13T08:00:31;39.10;;;21.88;;
48006;SDS011;33771;48.180;11.400;2022-10-13T08:02:56;33.90;;;21.73;;
48006;SDS011;33771;48.180;11.400;2022-10-13T08:05:22;39.17;;;21.92;;
48006;SDS011;33771;48.180;11.400;2022-10-13T08:07:47;33.78;;;20.73;;
48006;SDS011;33771;48.180;11.400;2022-10-13T08:10:14;34.40;;;21.10;;
48006;SDS011;33771;48.180;11.400;2022-10-13T08:12:39;35.50;;;20.35;;
48006;SDS011;33771;48.180;11.400;2022-10-13T08:15:05;31.80;;;19.52;;
48006;SDS011;33771;48.180;11.400;2022-10-13T08:17:32;31.58;;;19.10;;
48006;SDS011;33771;48.180;11.400;2022-10-13T08:19:58;28.45;;;19.20;;
48006;SDS011;33771;48.180;11.400;2022-10-13T08:22:23;30.17;;;19.48;;
48006;SDS011;33771;48.180;11.400;2022-10-13T08:24:49;25.95;;;18.48;;
48006;SDS011;33771;48.180;11.400;2022-10-13T08:27:17;30.92;;;18.60;;
48006;SDS011;33771;48.180;11.400;2022-10-13T08:29:45;31.42;;;18.13;;
48006;SDS011;33771;48.180;11.400;2022-10-13T08:32:11;32.70;;;19.15;;
48006;SDS011;33771;48.180;11.400;2022-10-13T08:34:36;30.35;;;17.63;;
48006;SDS011;33771;48.180;11.400;2022-10-13T08:37:02;25.48;;;16.70;;
48006;SDS011;33771;48.180;11.400;2022-10-13T08:39:28;31.50;;;16.75;;
48006;SDS011;33771;48.180;11.400;2022-10-13T08:41:54;28.05;;;17.15;;
48006;SDS011;33771;48.180;11.400;2022-10-13T08:49:25;24.23;;;16.23;;
48006;SDS011;33771;48.180;11.400;2022-10-13T08:51:51;23.77;;;15.50;;
48006;SDS011;33771;48.180;11.400;2022-10-13T08:54:18;23.23;;;15.13;;
48006;SDS011;33771;48.180;11.400;2022-10-13T08:56:48;22.08;;;14.73;;
48006;SDS011;33771;48.180;11.400;2022-10-13T08:59:15;28.25;;;15.80;;
48006;SDS011;33771;48.180;11.400;2022-10-13T09:01:42;24.42;;;14.32;;
48006;SDS011;33771;48.180;11.400;2022-10-13T09:04:25;22.90;;;14.30;;
48006;SDS011;33771;48.180;11.400;2022-10-13T09:09:31;25.23;;;13.80;;
48006;SDS011;33771;48.180;11.400;2022-10-13T09:11:56;21.88;;;13.55;;
48006;SDS011;33771;48.180;11.400;2022-10-13T09:14:27;20.88;;;12.75;;
48006;SDS011;33771;48.180;11.400;2022-10-13T09:16:56;18.15;;;12.50;;
48006;SDS011;33771;48.180;11.400;2022-10-13T09:19:36;23.35;;;12.55;;
48006;SDS011;33771;48.180;11.400;2022-10-13T09:22:20;23.30;;;13.05;;
48006;SDS011;33771;48.180;11.400;2022-10-13T09:27:42;22.15;;;11.85;;
48006;SDS011;33771;48.180;11.400;2022-10-13T09:32:49;15.55;;;11.63;;
48006;SDS011;33771;48.180;11.400;2022-10-13T09:35:21;18.17;;;11.38;;
48006;SDS011;33771;48.180;11.400;2022-10-13T09:38:00;21.95;;;12.23;;
48006;SDS011;33771;48.180;11.400;2022-10-13T09:40:37;21.05;;;11.50;;
48006;SDS011;33771;48.180;11.400;2022-10-13T09:43:21;19.23;;;10.52;;
48006;SDS011;33771;48.180;11.400;2022-10-13T09:45:56;20.60;;;10.80;;
48006;SDS011;33771;48.180;11.400;2022-10-13T09:48:24;18.65;;;10.80;;
48006;SDS011;33771;48.180;11.400;2022-10-13T09:50:52;19.80;;;10.98;;
48006;SDS011;33771;48.180;11.400;2022-10-13T09:55:45;21.42;;;10.65;;
48006;SDS011;33771;48.180;11.400;2022-10-13T09:58:14;22.45;;;10.13;;
48006;SDS011;33771;48.180;11.400;2022-10-13T10:00:45;18.35;;;9.77;;
48006;SDS011;33771;48.180;11.400;2022-10-13T10:03:16;19.25;;;10.40;;
48006;SDS011;33771;48.180;11.400;2022-10-13T10:05:53;18.73;;;10.57;;
48006;SDS011;33771;48.180;11.400;2022-10-13T10:11:09;21.20;;;11.20;;
48006;SDS011;33771;48.180;11.400;2022-10-13T10:13:57;18.98;;;10.25;;
48006;SDS011;33771;48.180;11.400;2022-10-13T10:16:45;18.75;;;11.00;;
48006;SDS011;33771;48.180;11.400;2022-10-13T10:25:11;16.15;;;9.80;;
48006;SDS011;33771;48.180;11.400;2022-10-13T10:27:41;19.70;;;10.63;;
48006;SDS011;33771;48.180;11.400;2022-10-13T10:30:24;16.95;;;10.25;;
48006;SDS011;33771;48.180;11.400;2022-10-13T10:32:53;17.25;;;10.32;;
48006;SDS011;33771;48.180;11.400;2022-10-13T10:35:42;22.33;;;11.35;;
48006;SDS011;33771;48.180;11.400;2022-10-13T10:40:54;19.90;;;10.85;;
48006;SDS011;33771;48.180;11.400;2022-10-13T10:46:25;16.65;;;9.82;;
48006;SDS011;33771;48.180;11.400;2022-10-13T10:48:55;20.65;;;10.07;;
48006;SDS011;33771;48.180;11.400;2022-10-13T10:51:30;16.42;;;10.02;;
48006;SDS011;33771;48.180;11.400;2022-10-13T10:57:32;18.40;;;10.65;;
48006;SDS011;33771;48.180;11.400;2022-10-13T11:00:10;18.40;;;10.32;;
48006;SDS011;33771;48.180;11.400;2022-10-13T11:08:31;17.17;;;10.07;;
48006;SDS011;33771;48.180;11.400;2022-10-13T11:13:53;18.08;;;9.18;;
48006;SDS011;33771;48.180;11.400;2022-10-13T11:16:32;17.75;;;9.55;;
48006;SDS011;33771;48.180;11.400;2022-10-13T11:19:30;16.10;;;8.90;;
48006;SDS011;33771;48.180;11.400;2022-10-13T11:56:35;13.40;;;8.93;;
48006;SDS011;33771;48.180;11.400;2022-10-13T12:01:46;13.63;;;8.32;;
48006;SDS011;33771;48.180;11.400;2022-10-13T12:04:18;15.45;;;8.65;;
48006;SDS011;33771;48.180;11.400;2022-10-13T12:06:47;13.73;;;7.75;;
48006;SDS011;33771;48.180;11.400;2022-10-13T12:09:24;17.45;;;8.40;;
48006;SDS011;33771;48.180;11.400;2022-10-13T12:11:59;18.88;;;8.68;;
48006;SDS011;33771;48.180;11.400;2022-10-13T12:14:29;16.20;;;7.85;;
48006;SDS011;33771;48.180;11.400;2022-10-13T12:17:15;16.95;;;8.00;;
48006;SDS011;33771;48.180;11.400;2022-10-13T12:19:44;17.42;;;8.38;;
48006;SDS011;33771;48.180;11.400;2022-10-13T12:22:10;19.58;;;9.02;;
48006;SDS011;33771;48.180;11.400;2022-10-13T12:24:36;23.63;;;9.18;;
48006;SDS011;33771;48.180;11.400;2022-10-13T12:27:08;18.83;;;8.18;;
48006;SDS011;33771;48.180;11.400;2022-10-13T12:29:53;14.65;;;8.52;;
48006;SDS011;33771;48.180;11.400;2022-10-13T12:32:23;13.63;;;7.88;;
48006;SDS011;33771;48.180;11.400;2022-10-13T12:35:15;15.30;;;7.80;;
48006;SDS011;33771;48.180;11.400;2022-10-13T12:37:42;15.70;;;7.90;;
48006;SDS011;33771;48.180;11.400;2022-10-13T12:40:08;16.13;;;7.85;;
48006;SDS011;33771;48.180;11.400;2022-10-13T12:42:37;14.60;;;8.00;;
48006;SDS011;33771;48.180;11.400;2022-10-13T12:45:03;16.77;;;7.82;;
48006;SDS011;33771;48.180;11.400;2022-10-13T12:53:15;19.08;;;8.32;;
48006;SDS011;33771;48.180;11.400;2022-10-13T12:55:45;17.60;;;7.43;;
48006;SDS011;33771;48.180;11.400;2022-10-13T12:58:26;12.05;;;8.20;;
48006;SDS011;33771;48.180;11.400;2022-10-13T13:00:55;18.52;;;8.82;;
48006;SDS011;33771;48.180;11.400;2022-10-13T13:03:30;14.90;;;8.07;;
48006;SDS011;33771;48.180;11.400;2022-10-13T13:06:18;16.02;;;8.52;;
48006;SDS011;33771;48.180;11.400;2022-10-13T13:08:51;17.33;;;7.72;;
48006;SDS011;33771;48.180;11.400;2022-10-13T13:11:33;15.43;;;8.38;;
48006;SDS011;33771;48.180;11.400;2022-10-13T13:17:08;13.52;;;8.57;;
48006;SDS011;33771;48.180;11.400;2022-10-13T13:19:37;15.50;;;8.90;;
48006;SDS011;33771;48.180;11.400;2022-10-13T13:22:04;18.42;;;8.45;;
48006;SDS011;33771;48.180;11.400;2022-10-13T13:24:33;16.45;;;8.63;;
48006;SDS011;33771;48.180;11.400;2022-10-13T13:29:47;17.50;;;8.02;;
48006;SDS011;33771;48.180;11.400;2022-10-13T13:32:14;19.00;;;7.88;;
48006;SDS011;33771;48.180;11.400;2022-10-13T13:34:41;16.15;;;7.95;;
48006;SDS011;33771;48.180;11.400;2022-10-13T13:37:52;19.27;;;8.57;;
48006;SDS011;33771;48.180;11.400;2022-10-13T13:39:55;15.93;;;7.75;;
48006;SDS011;33771;48.180;11.400;2022-10-13T13:42:21;16.88;;;8.35;;
48006;SDS011;33771;48.180;11.400;2022-10-13T13:44:46;17.38;;;7.68;;
48006;SDS011;33771;48.180;11.400;2022-10-13T13:47:16;11.85;;;7.03;;
48006;SDS011;33771;48.180;11.400;2022-10-13T13:49:47;16.67;;;8.45;;
48006;SDS011;33771;48.180;11.400;2022-10-13T13:52:15;15.32;;;8.00;;
48006;SDS011;33771;48.180;11.400;2022-10-13T13:54:51;17.80;;;7.97;;
48006;SDS011;33771;48.180;11.400;2022-10-13T13:57:17;12.07;;;8.10;;
48006;SDS011;33771;48.180;11.400;2022-10-13T13:59:43;23.58;;;8.02;;
48006;SDS011;33771;48.180;11.400;2022-10-13T14:02:11;11.32;;;7.00;;
48006;SDS011;33771;48.180;11.400;2022-10-13T14:04:44;14.98;;;7.28;;
48006;SDS011;33771;48.180;11.400;2022-10-13T14:07:10;12.13;;;7.65;;
48006;SDS011;33771;48.180;11.400;2022-10-13T14:09:35;14.38;;;7.57;;
48006;SDS011;33771;48.180;11.400;2022-10-13T14:12:02;14.65;;;7.50;;
48006;SDS011;33771;48.180;11.400;2022-10-13T14:14:31;14.60;;;7.18;;
48006;SDS011;33771;48.180;11.400;2022-10-13T14:17:00;22.13;;;9.02;;
48006;SDS011;33771;48.180;11.400;2022-10-13T14:19:27;13.13;;;8.02;;
48006;SDS011;33771;48.180;11.400;2022-10-13T14:21:53;14.07;;;8.30;;
48006;SDS011;33771;48.180;11.400;2022-10-13T14:24:19;12.63;;;7.50;;
48006;SDS011;33771;48.180;11.400;2022-10-13T14:26:45;15.48;;;7.60;;
48006;SDS011;33771;48.180;11.400;2022-10-13T14:29:10;17.35;;;7.65;;
48006;SDS011;33771;48.180;11.400;2022-10-13T14:31:37;16.48;;;7.07;;
48006;SDS011;33771;48.180;11.400;2022-10-13T14:34:03;15.52;;;7.20;;
48006;SDS011;33771;48.180;11.400;2022-10-13T14:36:29;13.48;;;8.00;;
48006;SDS011;33771;48.180;11.400;2022-10-13T14:38:54;15.32;;;7.05;;
48006;SDS011;33771;48.180;11.400;2022-10-13T14:41:20;16.52;;;7.68;;
48006;SDS011;33771;48.180;11.400;2022-10-13T14:43:45;12.80;;;7.03;;
48006;SDS011;33771;48.180;11.400;2022-10-13T14:46:11;17.52;;;8.02;;
48006;SDS011;33771;48.180;11.400;2022-10-13T14:48:37;17.52;;;7.45;;
48006;SDS011;33771;48.180;11.400;2022-10-13T14:51:06;15.30;;;7.55;;
48006;SDS011;33771;48.180;11.400;2022-10-13T14:53:37;12.88;;;7.63;;
48006;SDS011;33771;48.180;11.400;2022-10-13T14:56:20;14.38;;;7.25;;
48006;SDS011;33771;48.180;11.400;2022-10-13T14:58:47;15.20;;;7.35;;
48006;SDS011;33771;48.180;11.400;2022-10-13T15:01:15;15.18;;;7.15;;
48006;SDS011;33771;48.180;11.400;2022-10-13T15:03:43;25.90;;;7.88;;
48006;SDS011;33771;48.180;11.400;2022-10-13T15:06:12;14.07;;;7.53;;
48006;SDS011;33771;48.180;11.400;2022-10-13T15:08:45;14.85;;;7.65;;
48006;SDS011;33771;48.180;11.400;2022-10-13T15:11:12;16.20;;;7.65;;
48006;SDS011;33771;48.180;11.400;2022-10-13T15:13:38;14.30;;;7.43;;
48006;SDS011;33771;48.180;11.400;2022-10-13T15:16:04;15.50;;;8.10;;
48006;SDS011;33771;48.180;11.400;2022-10-13T15:18:32;11.80;;;7.13;;
48006;SDS011;33771;48.180;11.400;2022-10-13T15:21:00;15.63;;;7.88;;
48006;SDS011;33771;48.180;11.400;2022-10-13T15:23:25;14.52;;;8.18;;
48006;SDS011;33771;48.180;11.400;2022-10-13T15:25:55;21.48;;;8.15;;
48006;SDS011;33771;48.180;11.400;2022-10-13T15:28:22;15.07;;;8.07;;
48006;SDS011;33771;48.180;11.400;2022-10-13T15:30:49;17.67;;;7.93;;
48006;SDS011;33771;48.180;11.400;2022-10-13T15:33:15;13.65;;;7.50;;
48006;SDS011;33771;48.180;11.400;2022-10-13T15:35:41;23.77;;;7.88;;
48006;SDS011;33771;48.180;11.400;2022-10-13T15:38:07;11.95;;;7.93;;
48006;SDS011;33771;48.180;11.400;2022-10-13T15:40:33;15.63;;;8.15;;
48006;SDS011;33771;48.180;11.400;2022-10-13T15:43:02;21.38;;;7.22;;
48006;SDS011;33771;48.180;11.400;2022-10-13T15:45:28;17.95;;;7.72;;
48006;SDS011;33771;48.180;11.400;2022-10-13T15:47:54;17.30;;;7.50;;
48006;SDS011;33771;48.180;11.400;2022-10-13T15:50:21;18.52;;;7.57;;
48006;SDS011;33771;48.180;11.400;2022-10-13T15:52:47;19.17;;;7.88;;
48006;SDS011;33771;48.180;11.400;2022-10-13T15:55:13;17.73;;;7.85;;
48006;SDS011;33771;48.180;11.400;2022-10-13T15:57:38;18.23;;;7.47;;
48006;SDS011;33771;48.180;11.400;2022-10-13T16:00:05;14.18;;;7.03;;
48006;SDS011;33771;48.180;11.400;2022-10-13T16:02:31;14.25;;;6.43;;
48006;SDS011;33771;48.180;11.400;2022-10-13T16:04:57;13.40;;;6.68;;
48006;SDS011;33771;48.180;11.400;2022-10-13T16:07:28;14.32;;;7.20;;
48006;SDS011;33771;48.180;11.400;2022-10-13T16:09:56;11.18;;;6.75;;
48006;SDS011;33771;48.180;11.400;2022-10-13T16:12:22;14.98;;;7.28;;
48006;SDS011;33771;48.180;11.400;2022-10-13T16:14:48;13.93;;;7.47;;
48006;SDS011;33771;48.180;11.400;2022-10-13T16:17:14;14.90;;;8.05;;
48006;SDS011;33771;48.180;11.400;2022-10-13T16:19:40;16.73;;;8.35;;
48006;SDS011;33771;48.180;11.400;2022-10-13T16:22:05;17.92;;;8.18;;
48006;SDS011;33771;48.180;11.400;2022-10-13T16:24:31;16.73;;;7.18;;
48006;SDS011;33771;48.180;11.400;2022-10-13T16:26:58;17.63;;;7.47;;